Tamassee, South Carolina
Current Conditions -  °F | °C
As of 2:08 AM on Monday 22 Dec 2014 (Local Time) from KCEU Reporting Station
Light Rain Light Rain  
Wind Chill: 41°   Ceiling: 1400
Heat Index: 46°   Visibility: 7mi
Dew Point: 39°   Wind: 9mph
Humidity: 76%   Direction: 50°NE
Pressure: 30.13"   Gusts: NA
Location:  34.88°N, 83.02°W
Report Text: KCEU 220708Z AUTO 05008KT 7SM -RA OVC014 08/04 A3013 RMK AO2 P0000 T00780039
Loading
Personal Weather Stations






























Interactive Weather Map New forecast layout! Learn more

10-Day Weather Forecast

Advertisements
Track Severe Weather on mobile